Time;durP1;ratioP1;P1;durP2;ratioP2;P2;SDS_P1;SDS_P2;PMS_P1;PMS_P2;Temp;Humidity;BMP_temperature;BMP_pressure;BME280_temperature;BME280_humidity;BME280_pressure;Samples;Min_cycle;Max_cycle;Signal;HPM_P1;HPM_P2
2023/07/14 00:00:28;;;;;;;8.38;4.30;;;17.20;99.90;;;;;;5065077;28;20098;-71
2023/07/14 00:02:54;;;;;;;8.90;4.25;;;17.20;99.90;;;;;;5061839;28;20083;-72
2023/07/14 00:05:28;;;;;;;9.10;4.32;;;17.10;99.90;;;;;;5085196;28;20068;-72
2023/07/14 00:07:55;;;;;;;7.82;4.75;;;17.20;99.90;;;;;;5085306;28;20121;-71
2023/07/14 00:10:31;;;;;;;6.72;4.07;;;17.20;99.90;;;;;;5084240;28;20095;-71
2023/07/14 00:12:58;;;;;;;9.77;4.40;;;17.30;99.90;;;;;;5085844;28;20515;-71
2023/07/14 00:15:24;;;;;;;7.47;4.15;;;17.20;99.90;;;;;;5066807;28;20070;-71
2023/07/14 00:17:59;;;;;;;6.55;4.38;;;17.30;99.90;;;;;;5085367;28;20075;-71
2023/07/14 00:20:28;;;;;;;9.27;4.90;;;17.30;99.90;;;;;;5085531;28;20445;-71
2023/07/14 00:22:54;;;;;;;8.00;4.13;;;17.30;99.90;;;;;;5061466;28;20627;-71
2023/07/14 00:25:24;;;;;;;8.43;4.55;;;17.30;99.90;;;;;;5063284;28;20067;-71
2023/07/14 00:27:51;;;;;;;15.60;5.63;;;17.30;99.90;;;;;;5046880;28;20521;-71
2023/07/14 00:30:20;;;;;;;9.15;5.25;;;17.20;99.90;;;;;;5064382;28;20028;-71
2023/07/14 00:32:48;;;;;;;7.38;5.13;;;17.20;99.90;;;;;;5046384;28;20490;-71
2023/07/14 00:35:28;;;;;;;10.70;4.97;;;17.20;99.90;;;;;;5046323;28;20040;-71
2023/07/14 00:37:57;;;;;;;13.48;4.90;;;17.30;99.90;;;;;;5064607;28;20407;-72
2023/07/14 00:40:42;;;;;;;7.97;5.63;;;17.20;99.90;;;;;;5045287;28;20044;-72
2023/07/14 00:43:21;;;;;;;7.78;5.43;;;17.20;99.90;;;;;;5053235;28;20047;-71
2023/07/14 00:45:52;;;;;;;8.45;5.00;;;17.20;99.90;;;;;;5064637;28;20674;-72
2023/07/14 00:48:25;;;;;;;7.97;4.95;;;17.20;99.90;;;;;;5045974;28;20101;-72
2023/07/14 00:51:10;;;;;;;12.10;5.40;;;17.20;99.90;;;;;;5046139;28;20406;-71
2023/07/14 00:53:38;;;;;;;11.45;5.75;;;17.20;99.90;;;;;;5046251;28;20045;-72
2023/07/14 00:56:10;;;;;;;9.27;5.20;;;17.20;99.90;;;;;;5062885;28;20036;-72
2023/07/14 00:58:37;;;;;;;9.27;5.10;;;17.20;99.90;;;;;;5048311;28;20048;-71
2023/07/14 01:01:21;;;;;;;9.73;5.10;;;17.10;99.90;;;;;;5064059;28;20046;-72
2023/07/14 01:03:52;;;;;;;10.65;5.22;;;17.10;99.90;;;;;;5057601;28;20044;-71
2023/07/14 01:06:23;;;;;;;10.52;4.80;;;17.10;99.90;;;;;;5063721;28;20115;-71
2023/07/14 01:08:51;;;;;;;8.38;5.90;;;17.10;99.90;;;;;;5062719;28;20119;-71
2023/07/14 01:11:20;;;;;;;9.68;5.78;;;17.10;99.90;;;;;;5063251;28;20132;-71
2023/07/14 01:13:46;;;;;;;13.30;4.97;;;17.10;99.90;;;;;;5063767;28;20045;-71
2023/07/14 01:16:17;;;;;;;9.77;5.07;;;17.10;99.90;;;;;;5063836;28;20032;-72
2023/07/14 01:18:45;;;;;;;9.10;5.10;;;17.00;99.90;;;;;;5063940;28;20126;-71
2023/07/14 01:21:11;;;;;;;8.55;4.55;;;17.00;99.90;;;;;;5045410;28;20626;-71
2023/07/14 01:23:50;;;;;;;7.10;4.97;;;17.00;99.90;;;;;;5063452;28;20037;-71
2023/07/14 01:26:44;;;;;;;9.82;4.50;;;17.00;99.90;;;;;;5044967;28;20062;-71
2023/07/14 01:29:10;;;;;;;7.90;4.68;;;16.90;99.90;;;;;;5045222;28;20052;-71
2023/07/14 01:31:36;;;;;;;7.63;5.35;;;16.90;99.90;;;;;;5063732;28;20032;-72
2023/07/14 01:34:02;;;;;;;10.40;5.32;;;16.90;99.90;;;;;;5063328;28;20119;-72
2023/07/14 01:36:28;;;;;;;11.77;4.85;;;16.90;99.90;;;;;;5063941;28;20447;-71
2023/07/14 01:38:55;;;;;;;7.68;4.68;;;16.90;99.90;;;;;;5063901;28;20087;-72
2023/07/14 01:41:21;;;;;;;9.93;5.22;;;16.90;99.90;;;;;;5044643;28;20040;-72
2023/07/14 01:43:47;;;;;;;7.72;4.40;;;16.90;99.90;;;;;;5057899;28;20045;-71
2023/07/14 01:46:18;;;;;;;12.02;5.35;;;16.80;99.90;;;;;;5052169;28;20131;-72
2023/07/14 01:48:57;;;;;;;7.90;4.97;;;16.90;99.90;;;;;;5063508;28;20094;-71
2023/07/14 01:51:25;;;;;;;8.63;4.25;;;16.90;99.90;;;;;;5063315;28;20119;-71
2023/07/14 01:53:55;;;;;;;10.85;4.60;;;16.80;99.90;;;;;;5062957;28;20032;-71
2023/07/14 01:56:24;;;;;;;7.55;5.07;;;16.80;99.90;;;;;;5028645;28;20071;-71
2023/07/14 01:59:00;;;;;;;7.20;4.10;;;16.80;99.90;;;;;;5063667;28;20114;-71
2023/07/14 02:01:28;;;;;;;8.68;5.22;;;16.80;99.90;;;;;;5067565;28;20044;-71
2023/07/14 02:03:56;;;;;;;8.10;4.70;;;16.80;99.90;;;;;;5069887;28;20052;-71
2023/07/14 02:06:23;;;;;;;6.43;4.55;;;16.80;99.90;;;;;;5087190;28;20050;-71
2023/07/14 02:08:50;;;;;;;11.02;5.45;;;16.70;99.90;;;;;;5066225;28;20068;-71
2023/07/14 02:11:18;;;;;;;7.78;4.53;;;16.70;99.90;;;;;;5049039;28;20449;-71
2023/07/14 02:13:44;;;;;;;7.65;4.50;;;16.80;99.90;;;;;;5067383;28;20051;-71
2023/07/14 02:16:14;;;;;;;7.03;4.85;;;16.80;99.90;;;;;;5066970;28;20033;-71
2023/07/14 02:18:42;;;;;;;10.23;4.97;;;16.80;99.90;;;;;;5067561;28;20082;-71
2023/07/14 02:21:09;;;;;;;8.73;4.93;;;16.80;99.90;;;;;;5066715;28;20043;-72
2023/07/14 02:23:38;;;;;;;6.38;3.75;;;16.80;99.90;;;;;;5067253;28;20036;-71
2023/07/14 02:26:06;;;;;;;10.23;4.38;;;16.90;99.90;;;;;;5065883;28;20036;-71
2023/07/14 02:28:32;;;;;;;10.20;5.15;;;16.80;99.90;;;;;;5067097;28;20045;-71
2023/07/14 02:31:10;;;;;;;8.45;5.32;;;16.80;99.90;;;;;;5067410;28;20566;-71
2023/07/14 02:33:41;;;;;;;9.20;4.38;;;16.80;99.90;;;;;;5048937;28;20044;-71
2023/07/14 02:36:26;;;;;;;9.23;4.82;;;16.80;99.90;;;;;;5066661;28;20055;-72
2023/07/14 02:38:55;;;;;;;10.65;4.20;;;16.80;99.90;;;;;;5048066;28;20102;-72
2023/07/14 02:41:28;;;;;;;7.88;4.07;;;16.80;99.90;;;;;;5031620;28;20044;-71
2023/07/14 02:44:00;;;;;;;8.23;3.95;;;16.80;99.90;;;;;;5066647;28;20500;-71
2023/07/14 02:46:48;;;;;;;5.90;4.07;;;16.70;99.90;;;;;;5048773;28;20055;-71
2023/07/14 02:49:14;;;;;;;9.30;4.03;;;16.70;99.90;;;;;;5034361;28;20041;-71
2023/07/14 02:51:40;;;;;;;9.48;3.72;;;16.70;99.90;;;;;;5066778;28;20140;-71
2023/07/14 02:54:06;;;;;;;6.95;4.18;;;16.70;99.90;;;;;;5046969;28;20143;-72
2023/07/14 02:56:32;;;;;;;9.25;4.30;;;16.70;99.90;;;;;;5066086;28;20037;-72
2023/07/14 02:58:57;;;;;;;7.70;3.67;;;16.70;99.90;;;;;;5066859;28;20106;-71
2023/07/14 03:01:24;;;;;;;7.03;3.55;;;16.70;99.90;;;;;;5067740;28;20047;-71
2023/07/14 03:03:49;;;;;;;9.63;3.60;;;16.60;99.90;;;;;;5059366;28;20422;-71
2023/07/14 03:06:17;;;;;;;8.13;3.10;;;16.60;99.90;;;;;;5047988;28;20048;-71
2023/07/14 03:08:43;;;;;;;9.68;3.80;;;16.60;99.90;;;;;;5065146;28;20079;-72
2023/07/14 03:11:10;;;;;;;5.05;3.55;;;16.60;99.90;;;;;;5065787;28;20498;-72
2023/07/14 03:13:36;;;;;;;11.77;3.55;;;16.60;99.90;;;;;;5065378;28;20123;-71
2023/07/14 03:16:03;;;;;;;7.32;3.05;;;16.50;99.90;;;;;;5047501;28;20123;-71
2023/07/14 03:18:29;;;;;;;5.63;3.78;;;16.50;99.90;;;;;;5066572;28;20033;-72
2023/07/14 03:20:56;;;;;;;7.10;3.28;;;16.50;99.90;;;;;;5065698;28;20555;-71
2023/07/14 03:23:22;;;;;;;6.95;2.90;;;16.50;99.90;;;;;;5065565;28;20090;-71
2023/07/14 03:25:53;;;;;;;9.10;3.28;;;16.50;99.90;;;;;;5064533;28;20040;-71
2023/07/14 03:28:19;;;;;;;6.07;2.90;;;16.40;99.90;;;;;;5030830;28;20037;-72
2023/07/14 03:30:44;;;;;;;5.35;2.40;;;16.40;99.90;;;;;;5047775;28;20506;-71
2023/07/14 03:33:10;;;;;;;7.63;2.78;;;16.40;99.90;;;;;;5065706;28;20036;-71
2023/07/14 03:35:36;;;;;;;5.88;2.55;;;16.40;99.90;;;;;;5066060;28;20043;-71
2023/07/14 03:38:02;;;;;;;6.50;2.83;;;16.40;99.90;;;;;;5047388;28;20045;-71
2023/07/14 03:40:28;;;;;;;5.70;2.60;;;16.40;99.90;;;;;;5047018;28;20044;-71
2023/07/14 03:42:53;;;;;;;7.65;2.47;;;16.40;99.90;;;;;;5047939;28;20040;-71
2023/07/14 03:45:19;;;;;;;7.22;2.72;;;16.40;99.90;;;;;;5065312;28;20053;-71
2023/07/14 03:47:45;;;;;;;5.05;2.70;;;16.30;99.90;;;;;;5065389;28;20054;-72
2023/07/14 03:50:13;;;;;;;4.75;2.58;;;16.30;99.90;;;;;;5031333;28;20486;-71
2023/07/14 03:52:41;;;;;;;3.17;2.05;;;16.30;99.90;;;;;;5047395;28;20043;-71
2023/07/14 03:55:08;;;;;;;5.75;2.40;;;16.30;99.90;;;;;;5063817;28;20063;-71
2023/07/14 03:57:35;;;;;;;7.15;2.30;;;16.20;99.90;;;;;;5065007;28;20053;-71
2023/07/14 04:00:12;;;;;;;3.45;2.15;;;16.20;99.90;;;;;;5047105;28;20114;-72
2023/07/14 04:02:41;;;;;;;6.03;2.65;;;16.20;99.90;;;;;;5067126;28;20056;-71
2023/07/14 04:05:09;;;;;;;7.13;2.20;;;16.20;99.90;;;;;;5065609;28;20558;-71
2023/07/14 04:07:39;;;;;;;6.38;2.10;;;16.20;99.90;;;;;;5046667;28;20041;-71
2023/07/14 04:10:06;;;;;;;6.75;2.70;;;16.20;99.90;;;;;;5064028;28;20406;-71
2023/07/14 04:12:33;;;;;;;4.38;2.47;;;16.20;99.90;;;;;;5064939;28;20052;-71
2023/07/14 04:14:59;;;;;;;4.95;2.58;;;16.20;99.90;;;;;;5064998;28;20045;-71
2023/07/14 04:17:25;;;;;;;4.43;1.95;;;16.20;99.90;;;;;;5047672;28;20394;-71
2023/07/14 04:19:50;;;;;;;3.80;2.25;;;16.20;99.90;;;;;;5047231;28;20131;-71
2023/07/14 04:22:18;;;;;;;5.90;2.25;;;16.20;99.90;;;;;;5046269;28;20086;-71
2023/07/14 04:24:44;;;;;;;8.63;2.65;;;16.20;99.90;;;;;;5044871;28;20048;-71
2023/07/14 04:27:10;;;;;;;5.70;3.03;;;16.20;99.90;;;;;;5064787;28;20054;-71
2023/07/14 04:29:37;;;;;;;6.55;2.90;;;16.30;99.90;;;;;;5064974;28;20041;-73
2023/07/14 04:32:02;;;;;;;6.80;2.30;;;16.20;99.90;;;;;;5046437;28;20139;-73
2023/07/14 04:34:29;;;;;;;6.75;2.63;;;16.30;99.90;;;;;;5047096;28;20136;-73
2023/07/14 04:36:55;;;;;;;6.28;2.97;;;16.30;99.90;;;;;;5046948;28;20043;-73
2023/07/14 04:39:23;;;;;;;4.07;2.50;;;16.30;99.90;;;;;;5063406;28;20048;-73
2023/07/14 04:41:49;;;;;;;6.88;2.72;;;16.30;99.90;;;;;;5064471;28;20398;-73
2023/07/14 04:44:16;;;;;;;5.45;2.67;;;16.30;99.90;;;;;;5064433;28;20044;-73
2023/07/14 04:46:44;;;;;;;5.35;2.42;;;16.30;99.90;;;;;;5063197;28;20072;-73
2023/07/14 04:49:11;;;;;;;7.30;2.88;;;16.30;99.90;;;;;;5062945;28;20058;-73
2023/07/14 04:51:37;;;;;;;6.30;3.33;;;16.30;99.90;;;;;;5050876;28;20037;-73
2023/07/14 04:54:04;;;;;;;4.60;2.80;;;16.30;99.90;;;;;;5063031;28;20040;-73
2023/07/14 04:56:30;;;;;;;5.18;2.90;;;16.40;99.90;;;;;;5046357;28;20044;-73
2023/07/14 04:58:56;;;;;;;4.90;3.25;;;16.40;99.90;;;;;;5046691;28;20060;-73
2023/07/14 05:01:22;;;;;;;7.43;3.47;;;16.30;99.90;;;;;;5047530;28;20060;-73
2023/07/14 05:03:48;;;;;;;3.88;2.55;;;16.40;99.90;;;;;;5070440;28;20040;-74
2023/07/14 05:06:14;;;;;;;4.57;2.58;;;16.40;99.90;;;;;;5034232;28;20044;-73
2023/07/14 05:08:40;;;;;;;5.70;3.30;;;16.40;99.90;;;;;;5030700;28;20040;-73
2023/07/14 05:11:06;;;;;;;6.93;3.05;;;16.40;99.90;;;;;;5035060;28;20321;-73
2023/07/14 05:13:32;;;;;;;6.45;2.92;;;16.40;99.90;;;;;;5052114;28;20056;-74
2023/07/14 05:15:58;;;;;;;6.05;2.78;;;16.40;99.90;;;;;;5046793;28;20135;-74
2023/07/14 05:18:24;;;;;;;6.45;2.45;;;16.50;99.90;;;;;;5044194;28;20040;-73
2023/07/14 05:20:50;;;;;;;7.45;2.53;;;16.50;99.90;;;;;;5044759;28;20049;-73
2023/07/14 05:23:17;;;;;;;7.38;2.60;;;16.50;99.90;;;;;;5045567;28;20124;-73
2023/07/14 05:25:44;;;;;;;5.63;2.88;;;16.60;99.90;;;;;;5058796;28;20037;-73
2023/07/14 05:28:10;;;;;;;12.70;3.13;;;16.60;99.90;;;;;;5044909;28;20037;-74
2023/07/14 05:30:35;;;;;;;6.90;3.10;;;16.60;99.90;;;;;;5063751;28;20109;-74
2023/07/14 05:33:02;;;;;;;6.50;2.83;;;16.70;99.90;;;;;;5044960;28;20044;-74
2023/07/14 05:35:28;;;;;;;6.97;2.53;;;16.70;99.90;;;;;;5045194;28;20542;-74
2023/07/14 05:37:54;;;;;;;5.75;3.17;;;16.70;99.90;;;;;;5063558;28;20044;-74
2023/07/14 05:40:20;;;;;;;6.32;3.33;;;16.70;99.90;;;;;;5043642;28;20358;-74
2023/07/14 05:42:46;;;;;;;7.10;3.92;;;16.80;99.90;;;;;;5058436;28;20037;-73
2023/07/14 05:45:13;;;;;;;4.85;3.15;;;16.80;99.90;;;;;;5029584;28;20044;-73
2023/07/14 05:47:43;;;;;;;5.97;2.63;;;16.90;99.90;;;;;;5030090;28;20102;-74
2023/07/14 05:50:10;;;;;;;3.72;2.65;;;16.90;99.90;;;;;;5062261;28;20132;-74
2023/07/14 05:52:36;;;;;;;5.93;3.10;;;16.90;99.90;;;;;;5063329;28;20071;-75
2023/07/14 05:55:05;;;;;;;4.88;2.75;;;17.00;99.90;;;;;;5052684;28;20554;-75
2023/07/14 05:57:32;;;;;;;7.28;2.95;;;17.00;99.90;;;;;;5045634;28;20037;-75
2023/07/14 05:59:58;;;;;;;4.80;2.80;;;17.10;99.90;;;;;;5061844;28;20044;-73
2023/07/14 06:02:24;;;;;;;7.25;3.28;;;17.10;99.90;;;;;;5049779;28;20548;-74
2023/07/14 06:04:49;;;;;;;6.47;2.83;;;17.10;99.90;;;;;;5049987;28;20040;-73
2023/07/14 06:07:15;;;;;;;4.47;2.83;;;17.20;99.90;;;;;;5045076;28;20076;-73
2023/07/14 06:09:42;;;;;;;2.90;2.00;;;17.20;99.90;;;;;;5034663;28;20053;-74
2023/07/14 06:12:10;;;;;;;8.20;2.78;;;17.20;99.90;;;;;;5045187;28;20047;-75
2023/07/14 06:14:39;;;;;;;3.28;2.35;;;17.30;99.90;;;;;;5051343;28;20086;-74
2023/07/14 06:17:08;;;;;;;4.85;2.28;;;17.30;99.90;;;;;;5044409;28;20383;-73
2023/07/14 06:19:35;;;;;;;8.15;3.25;;;17.40;99.90;;;;;;5069375;28;20040;-73
2023/07/14 06:22:02;;;;;;;5.35;2.67;;;17.50;99.90;;;;;;5042133;28;20044;-74
2023/07/14 06:24:28;;;;;;;7.90;2.55;;;17.50;99.90;;;;;;5060973;28;20044;-74
2023/07/14 06:26:53;;;;;;;6.40;2.78;;;17.50;99.90;;;;;;5059508;28;20082;-75
2023/07/14 06:29:22;;;;;;;5.10;2.80;;;17.60;99.90;;;;;;5058383;28;20396;-74
2023/07/14 06:31:48;;;;;;;7.10;3.10;;;17.60;99.90;;;;;;5042784;28;20036;-75
2023/07/14 06:34:13;;;;;;;6.70;3.00;;;17.70;99.90;;;;;;5061342;28;20406;-74
2023/07/14 06:36:39;;;;;;;7.10;2.70;;;17.70;99.90;;;;;;5044079;28;20127;-74
2023/07/14 06:39:07;;;;;;;3.83;2.67;;;17.80;99.90;;;;;;5060885;28;20629;-74
2023/07/14 06:41:33;;;;;;;11.00;3.28;;;17.80;99.90;;;;;;5062766;28;20075;-75
2023/07/14 06:44:00;;;;;;;8.00;2.80;;;17.90;99.90;;;;;;5045796;28;20198;-75
2023/07/14 06:46:26;;;;;;;3.67;2.90;;;18.00;99.90;;;;;;5067214;28;20127;-74
2023/07/14 06:48:52;;;;;;;5.70;2.55;;;18.00;99.90;;;;;;5066099;28;20115;-76
2023/07/14 06:51:17;;;;;;;6.28;2.78;;;18.10;99.90;;;;;;5066469;28;20487;-75
2023/07/14 06:53:43;;;;;;;4.90;2.85;;;18.20;99.90;;;;;;5076540;28;20036;-76
2023/07/14 06:56:09;;;;;;;3.58;2.45;;;18.20;99.90;;;;;;5065268;28;20044;-75
2023/07/14 06:58:35;;;;;;;4.45;2.65;;;18.20;99.90;;;;;;5060645;28;20049;-77
2023/07/14 07:01:04;;;;;;;7.95;3.08;;;18.20;99.90;;;;;;5032915;28;20147;-76
2023/07/14 07:03:30;;;;;;;6.30;2.53;;;18.30;99.90;;;;;;5001670;28;20059;-75
2023/07/14 07:05:56;;;;;;;8.25;3.75;;;18.30;99.90;;;;;;5017428;28;20080;-76
2023/07/14 07:08:22;;;;;;;5.22;2.20;;;18.30;99.90;;;;;;5030439;28;20049;-75
2023/07/14 07:10:49;;;;;;;5.82;2.90;;;18.30;99.90;;;;;;5067339;28;20135;-76
2023/07/14 07:13:15;;;;;;;5.20;2.33;;;18.40;99.90;;;;;;5035681;28;20047;-77
2023/07/14 07:15:41;;;;;;;5.75;2.67;;;18.40;99.90;;;;;;5026521;28;20036;-76
2023/07/14 07:18:08;;;;;;;4.50;2.50;;;18.40;99.90;;;;;;5065242;28;20035;-77
2023/07/14 07:20:40;;;;;;;6.05;3.15;;;18.40;99.90;;;;;;5050693;28;20040;-77
2023/07/14 07:23:06;;;;;;;9.23;3.00;;;18.50;99.90;;;;;;5050693;28;20102;-77
2023/07/14 07:25:32;;;;;;;3.67;2.78;;;18.50;99.90;;;;;;5048324;28;20052;-76
2023/07/14 07:27:58;;;;;;;4.25;2.58;;;18.60;99.90;;;;;;5060503;28;20058;-76
2023/07/14 07:30:27;;;;;;;7.15;2.78;;;18.60;99.90;;;;;;5050182;28;20054;-76
2023/07/14 07:32:52;;;;;;;13.75;3.13;;;18.60;99.90;;;;;;5077326;28;20132;-75
2023/07/14 07:35:18;;;;;;;3.70;2.90;;;18.70;99.90;;;;;;5058025;28;20120;-75
2023/07/14 07:37:44;;;;;;;5.95;2.55;;;18.70;99.90;;;;;;5046708;28;20399;-75
2023/07/14 07:40:11;;;;;;;7.18;2.58;;;18.70;99.90;;;;;;5047997;28;20060;-77
2023/07/14 07:42:40;;;;;;;7.55;2.20;;;18.70;99.90;;;;;;5055745;28;20454;-79
2023/07/14 07:45:08;;;;;;;3.63;2.38;;;18.80;99.90;;;;;;5066508;28;20044;-75
2023/07/14 07:47:33;;;;;;;6.28;2.10;;;18.80;99.90;;;;;;5064867;28;20491;-75
2023/07/14 07:49:59;;;;;;;3.47;2.35;;;18.90;99.90;;;;;;5046559;28;20058;-75
2023/07/14 07:52:25;;;;;;;6.18;2.30;;;18.80;99.90;;;;;;5063867;28;20036;-75
2023/07/14 07:54:50;;;;;;;7.60;2.33;;;18.90;99.90;;;;;;5043798;28;20094;-76
2023/07/14 07:57:16;;;;;;;5.25;3.10;;;19.00;99.90;;;;;;5043912;28;20051;-75
2023/07/14 07:59:42;;;;;;;4.75;2.83;;;19.10;99.90;;;;;;5046220;28;20044;-73
2023/07/14 08:02:11;;;;;;;5.05;1.90;;;19.20;99.90;;;;;;5039640;28;20041;-74
2023/07/14 08:04:37;;;;;;;3.55;1.90;;;19.20;99.90;;;;;;5046243;28;20052;-74
2023/07/14 08:07:07;;;;;;;2.13;1.75;;;19.20;99.90;;;;;;5064842;28;20493;-75
2023/07/14 08:09:34;;;;;;;2.65;2.45;;;19.20;99.90;;;;;;5052701;28;20660;-75
2023/07/14 08:12:00;;;;;;;4.75;1.98;;;19.10;99.90;;;;;;5065214;28;20033;-75
2023/07/14 08:14:25;;;;;;;4.60;2.05;;;19.00;99.90;;;;;;5058011;28;20044;-75
2023/07/14 08:16:51;;;;;;;3.35;2.08;;;19.00;99.90;;;;;;5063832;28;20051;-75
2023/07/14 08:19:17;;;;;;;4.75;1.45;;;19.10;99.90;;;;;;5064885;28;20399;-75
2023/07/14 08:21:43;;;;;;;2.88;1.75;;;19.20;99.90;;;;;;5069541;28;20127;-75
2023/07/14 08:24:10;;;;;;;3.70;1.95;;;19.30;99.90;;;;;;5058701;28;20084;-75
2023/07/14 08:26:37;;;;;;;4.43;2.15;;;19.40;99.90;;;;;;5063387;28;20041;-75
2023/07/14 08:29:04;;;;;;;2.88;1.77;;;19.40;99.90;;;;;;5065814;28;20044;-75
2023/07/14 08:31:31;;;;;;;2.90;1.92;;;19.50;99.90;;;;;;5062970;28;20055;-79
2023/07/14 08:33:56;;;;;;;2.08;1.50;;;19.60;99.90;;;;;;5046084;28;20527;-76
2023/07/14 08:36:23;;;;;;;4.00;1.65;;;19.60;99.90;;;;;;5045837;28;20052;-77
2023/07/14 08:38:49;;;;;;;3.88;1.65;;;19.60;99.90;;;;;;5026897;28;20123;-76
2023/07/14 08:41:30;;;;;;;2.63;1.67;;;19.60;99.90;;;;;;5063381;28;20166;-77
2023/07/14 08:44:11;;;;;;;3.38;1.83;;;19.70;99.90;;;;;;5047210;28;20090;-77
2023/07/14 08:46:55;;;;;;;4.50;1.23;;;19.70;99.90;;;;;;5045704;28;20102;-77
2023/07/14 08:49:26;;;;;;;2.28;1.65;;;19.70;99.90;;;;;;5044839;28;20072;-76
2023/07/14 08:52:00;;;;;;;2.47;1.17;;;19.70;99.90;;;;;;5044585;28;20072;-77
2023/07/14 08:54:41;;;;;;;4.22;1.95;;;19.70;99.90;;;;;;5062048;28;20071;-76
2023/07/14 08:57:20;;;;;;;6.43;1.48;;;19.80;99.90;;;;;;5044638;28;20049;-76
2023/07/14 08:59:48;;;;;;;3.83;1.45;;;19.80;99.90;;;;;;5066575;28;20066;-76
2023/07/14 09:02:41;;;;;;;3.80;1.63;;;19.80;99.90;;;;;;5061141;28;20047;-75
2023/07/14 09:05:18;;;;;;;1.70;1.55;;;19.80;99.90;;;;;;5046515;28;20401;-76
2023/07/14 09:07:45;;;;;;;3.20;1.67;;;19.80;99.90;;;;;;5063313;28;20551;-76
2023/07/14 09:10:12;;;;;;;3.45;1.52;;;19.80;99.90;;;;;;5044830;28;20063;-76
2023/07/14 09:12:42;;;;;;;5.95;2.08;;;19.80;99.90;;;;;;5029554;28;20053;-76
2023/07/14 09:15:19;;;;;;;3.15;1.48;;;19.80;99.90;;;;;;5046000;28;20089;-75
2023/07/14 09:18:00;;;;;;;5.28;1.60;;;19.90;99.90;;;;;;5064414;28;20058;-76
2023/07/14 09:20:51;;;;;;;1.52;1.42;;;19.90;99.90;;;;;;5029165;28;20529;-76
2023/07/14 09:23:29;;;;;;;2.28;1.63;;;19.90;99.90;;;;;;5076657;28;20093;-76
2023/07/14 09:26:16;;;;;;;5.70;1.67;;;19.90;99.90;;;;;;5049271;28;20498;-76
2023/07/14 09:28:46;;;;;;;1.98;1.23;;;20.00;99.90;;;;;;5083844;28;20083;-75
2023/07/14 09:31:25;;;;;;;3.22;2.03;;;20.00;99.90;;;;;;5047205;28;20032;-76
2023/07/14 09:33:56;;;;;;;3.50;1.30;;;20.10;99.90;;;;;;5045577;28;20058;-76
2023/07/14 09:36:23;;;;;;;4.68;1.60;;;20.20;99.90;;;;;;5032305;28;20079;-77
2023/07/14 09:38:53;;;;;;;4.03;1.48;;;20.30;99.90;;;;;;5066118;28;20039;-75
2023/07/14 09:41:23;;;;;;;4.43;1.60;;;20.30;99.90;;;;;;5044210;28;20049;-76
2023/07/14 09:43:49;;;;;;;5.00;1.60;;;20.40;99.90;;;;;;5044727;28;20048;-76
2023/07/14 09:46:18;;;;;;;4.00;1.73;;;20.40;99.90;;;;;;5063473;28;20498;-76
2023/07/14 09:48:52;;;;;;;3.42;1.83;;;20.50;99.90;;;;;;5046769;28;20045;-76
2023/07/14 09:51:26;;;;;;;6.03;1.92;;;20.60;99.90;;;;;;5064880;28;20028;-77
2023/07/14 09:53:59;;;;;;;3.60;1.90;;;20.60;99.90;;;;;;5061114;28;20063;-76
2023/07/14 09:56:31;;;;;;;6.10;1.70;;;20.70;99.90;;;;;;5062925;28;20266;-76
2023/07/14 09:59:04;;;;;;;4.35;1.83;;;20.80;99.90;;;;;;5027947;28;20246;-76
2023/07/14 10:01:30;;;;;;;4.75;1.80;;;20.90;99.90;;;;;;5030240;28;20494;-76
2023/07/14 10:04:06;;;;;;;5.30;2.00;;;20.90;99.90;;;;;;5061236;28;20048;-76
2023/07/14 10:06:32;;;;;;;4.15;2.22;;;20.90;99.90;;;;;;5068465;28;20036;-76
2023/07/14 10:08:59;;;;;;;4.55;2.28;;;20.90;99.90;;;;;;5045641;28;20518;-76
2023/07/14 10:11:24;;;;;;;2.45;2.05;;;21.00;99.90;;;;;;5044585;28;20044;-76
2023/07/14 10:14:19;;;;;;;3.25;1.67;;;21.00;99.90;;;;;;5044779;28;20544;-76
2023/07/14 10:16:46;;;;;;;5.30;2.40;;;20.90;99.90;;;;;;5033084;28;20049;-76
2023/07/14 10:19:15;;;;;;;4.20;2.30;;;20.90;99.90;;;;;;5056120;28;20029;-75
2023/07/14 10:21:54;;;;;;;2.90;2.20;;;20.80;99.90;;;;;;5053010;28;20387;-76
2023/07/14 10:24:20;;;;;;;4.38;2.08;;;20.80;99.90;;;;;;5067901;28;20044;-76
2023/07/14 10:27:28;;;;;;;5.55;3.38;;;20.80;99.90;;;;;;5066267;28;20068;-76
2023/07/14 10:30:08;;;;;;;2.80;1.92;;;20.70;99.90;;;;;;5066205;28;20052;-75
2023/07/14 10:32:51;;;;;;;5.63;1.95;;;20.70;99.90;;;;;;5056644;28;20049;-76
2023/07/14 10:35:23;;;;;;;4.38;2.20;;;20.60;99.90;;;;;;5049440;28;20471;-77
2023/07/14 10:38:09;;;;;;;5.47;2.58;;;20.60;99.90;;;;;;5065253;28;20119;-76
2023/07/14 10:40:40;;;;;;;10.05;2.58;;;20.60;99.90;;;;;;5032555;28;20071;-77
2023/07/14 10:43:23;;;;;;;3.67;2.38;;;20.50;99.90;;;;;;5072080;28;20040;-76
2023/07/14 10:45:57;;;;;;;6.15;2.58;;;20.40;99.90;;;;;;5047005;28;20052;-76
2023/07/14 10:48:30;;;;;;;5.32;2.47;;;20.40;99.90;;;;;;5028280;28;20126;-76
2023/07/14 10:51:10;;;;;;;5.93;2.97;;;20.40;99.90;;;;;;5065855;28;20454;-76
2023/07/14 10:53:49;;;;;;;3.95;2.47;;;20.40;99.90;;;;;;5017032;28;20123;-78
2023/07/14 10:56:24;;;;;;;5.35;3.17;;;20.50;99.90;;;;;;5065736;28;20609;-77
2023/07/14 10:59:06;;;;;;;5.63;2.08;;;20.60;99.90;;;;;;5063820;28;20160;-77
2023/07/14 11:01:37;;;;;;;4.28;2.05;;;20.70;99.90;;;;;;5058253;28;20052;-77
2023/07/14 11:04:22;;;;;;;9.23;3.28;;;20.80;99.90;;;;;;5045059;28;20639;-77
2023/07/14 11:06:52;;;;;;;7.10;2.75;;;20.90;99.90;;;;;;5047231;28;20399;-77
2023/07/14 11:09:18;;;;;;;3.63;2.70;;;20.90;99.90;;;;;;5063733;28;20067;-76
2023/07/14 11:12:07;;;;;;;4.60;2.50;;;21.00;99.90;;;;;;5048585;28;20049;-77
2023/07/14 11:14:53;;;;;;;2.85;2.33;;;21.10;99.90;;;;;;5039984;28;20051;-76
2023/07/14 11:17:30;;;;;;;3.42;2.47;;;21.10;99.90;;;;;;5062936;28;20040;-78
2023/07/14 11:20:12;;;;;;;4.85;2.97;;;21.00;99.90;;;;;;5048062;28;20198;-75
2023/07/14 11:23:05;;;;;;;6.55;2.17;;;21.00;99.90;;;;;;5030307;28;20503;-75
2023/07/14 11:25:55;;;;;;;4.00;2.45;;;21.00;99.90;;;;;;5048055;28;20045;-75
2023/07/14 11:28:43;;;;;;;5.68;2.65;;;21.00;99.90;;;;;;5062869;28;20692;-75
2023/07/14 11:31:45;;;;;;;6.25;2.22;;;21.00;99.90;;;;;;5062238;28;20083;-74
2023/07/14 11:34:35;;;;;;;3.22;2.50;;;21.00;99.90;;;;;;5046656;28;20545;-74
2023/07/14 11:37:22;;;;;;;7.57;2.40;;;21.10;99.90;;;;;;5046657;28;20086;-75
2023/07/14 11:39:56;;;;;;;6.63;2.88;;;21.20;99.90;;;;;;5042540;28;20068;-74
2023/07/14 11:42:36;;;;;;;3.55;2.50;;;21.30;99.90;;;;;;5058458;28;20099;-73
2023/07/14 11:45:09;;;;;;;6.25;2.30;;;21.40;99.90;;;;;;5084084;28;20089;-74
2023/07/14 11:47:42;;;;;;;7.38;2.53;;;21.50;99.90;;;;;;5045945;28;20053;-72
2023/07/14 11:50:29;;;;;;;6.72;2.88;;;21.50;99.90;;;;;;5046145;28;20037;-73
2023/07/14 11:53:07;;;;;;;4.90;2.90;;;21.50;99.90;;;;;;5051948;28;20059;-72
2023/07/14 11:55:37;;;;;;;4.78;2.42;;;21.50;99.90;;;;;;5064541;28;20101;-72
2023/07/14 11:58:22;;;;;;;4.57;2.40;;;21.50;99.90;;;;;;5065546;28;20084;-71
2023/07/14 12:01:03;;;;;;;6.57;3.33;;;21.50;99.90;;;;;;5064212;28;20045;-71
2023/07/14 12:03:39;;;;;;;4.57;2.65;;;21.60;99.90;;;;;;5070096;28;20075;-71
2023/07/14 12:06:14;;;;;;;5.65;2.72;;;21.50;99.90;;;;;;5065288;28;20318;-72
2023/07/14 12:08:41;;;;;;;10.88;3.63;;;21.60;99.90;;;;;;5046190;28;20049;-71
2023/07/14 12:11:27;;;;;;;5.35;3.90;;;21.60;99.90;;;;;;5029997;28;20060;-72
2023/07/14 12:13:53;;;;;;;11.27;3.88;;;21.70;99.90;;;;;;5043036;28;20045;-71
2023/07/14 12:16:46;;;;;;;6.65;2.92;;;21.70;99.90;;;;;;5065181;28;20058;-71
2023/07/14 12:19:31;;;;;;;8.40;3.20;;;21.70;99.90;;;;;;5061597;28;20418;-71
2023/07/14 12:22:05;;;;;;;8.57;2.78;;;21.70;99.90;;;;;;5047690;28;20106;-71
2023/07/14 12:24:38;;;;;;;7.47;3.97;;;21.70;99.90;;;;;;5046085;28;20525;-71
2023/07/14 12:27:12;;;;;;;4.75;3.70;;;21.70;99.90;;;;;;5042465;28;20063;-71
2023/07/14 12:29:38;;;;;;;4.85;3.35;;;21.70;99.90;;;;;;5053617;28;20446;-73
2023/07/14 12:32:19;;;;;;;5.65;3.30;;;21.80;99.90;;;;;;5045198;28;20149;-74
2023/07/14 12:34:46;;;;;;;4.88;3.47;;;21.90;99.90;;;;;;5048585;28;20076;-76
2023/07/14 12:37:20;;;;;;;7.43;3.13;;;21.90;99.90;;;;;;5051369;28;20128;-76
2023/07/14 12:39:56;;;;;;;6.85;3.25;;;22.00;99.90;;;;;;5062700;28;20037;-77
2023/07/14 12:42:22;;;;;;;5.50;3.80;;;22.00;99.90;;;;;;5042766;28;20059;-78
2023/07/14 12:44:53;;;;;;;7.60;3.28;;;22.00;99.90;;;;;;5042842;28;20032;-73
2023/07/14 12:47:18;;;;;;;5.00;3.80;;;22.00;99.90;;;;;;5053587;28;20086;-75
2023/07/14 12:49:47;;;;;;;4.78;3.13;;;22.00;99.90;;;;;;5062706;28;20032;-71
2023/07/14 12:52:27;;;;;;;6.50;3.45;;;21.90;99.90;;;;;;5044216;28;20044;-73
2023/07/14 12:54:58;;;;;;;5.45;3.38;;;21.80;99.90;;;;;;5043697;28;20032;-73
2023/07/14 12:57:24;;;;;;;10.20;3.90;;;21.80;99.90;;;;;;5038007;28;20086;-73
2023/07/14 12:59:53;;;;;;;5.57;3.17;;;21.80;99.90;;;;;;5061615;28;20040;-73
2023/07/14 13:02:19;;;;;;;7.18;3.15;;;21.70;99.90;;;;;;5057897;28;20051;-73